createdAt,value
2018-02-20T00:00:29.109Z,1014.11
2018-02-20T00:01:39.058Z,1014.13
2018-02-20T00:02:48.503Z,1014.13
2018-02-20T00:03:58.203Z,1014.14
2018-02-20T00:05:07.837Z,1014.17
2018-02-20T00:06:17.271Z,1014.14
2018-02-20T00:07:26.722Z,1014.14
2018-02-20T00:08:36.675Z,1014.15
2018-02-20T00:09:46.620Z,1014.16
2018-02-20T00:10:56.580Z,1014.15
2018-02-20T00:12:06.541Z,1014.11
2018-02-20T00:13:16.495Z,1014.19
2018-02-20T00:14:26.190Z,1014.14
2018-02-20T00:15:35.880Z,1014.14
2018-02-20T00:16:45.315Z,1014.13
2018-02-20T00:17:55.008Z,1014.13
2018-02-20T00:19:04.705Z,1014.14
2018-02-20T00:20:14.669Z,1014.13
2018-02-20T00:21:24.413Z,1014.18
2018-02-20T00:22:34.176Z,1014.15
2018-02-20T00:23:44.123Z,1014.17
2018-02-20T00:24:53.819Z,1014.18
2018-02-20T00:26:03.254Z,1014.15
2018-02-20T00:27:13.216Z,1014.13
2018-02-20T00:28:22.923Z,1014.17
2018-02-20T00:29:32.358Z,1014.16
2018-02-20T00:30:42.061Z,1014.15
2018-02-20T00:31:52.027Z,1014.16
2018-02-20T00:33:02.036Z,1014.17
2018-02-20T00:34:11.218Z,1014.17
2018-02-20T00:35:20.661Z,1014.16
2018-02-20T00:36:30.368Z,1014.11
2018-02-20T00:37:40.069Z,1014.14
2018-02-20T00:38:50.027Z,1014.12
2018-02-20T00:39:59.974Z,1014.12
2018-02-20T00:41:09.659Z,1014.13
2018-02-20T00:42:19.615Z,1014.14
2018-02-20T00:43:28.789Z,1014.11
2018-02-20T00:44:38.759Z,1014.09
2018-02-20T00:45:48.721Z,1014.09
2018-02-20T00:46:58.156Z,1014.09
2018-02-20T00:48:07.598Z,1014.12
2018-02-20T00:49:17.294Z,1014.11
2018-02-20T00:50:26.982Z,1014.12
2018-02-20T00:51:36.693Z,1014.16
2018-02-20T00:52:46.653Z,1014.16
2018-02-20T00:53:56.349Z,1014.18
2018-02-20T00:55:06.304Z,1014.2
2018-02-20T00:56:16.043Z,1014.17
2018-02-20T00:57:25.485Z,1014.18
2018-02-20T00:58:35.436Z,1014.22
2018-02-20T00:59:45.391Z,1014.16
2018-02-20T01:00:54.824Z,1014.2
2018-02-20T01:02:04.787Z,1014.18
2018-02-20T01:03:14.217Z,1014.19
2018-02-20T01:04:23.922Z,1014.21
2018-02-20T01:05:33.875Z,1014.16
2018-02-20T01:06:43.826Z,1014.15
2018-02-20T01:07:53.796Z,1014.16
2018-02-20T01:09:03.754Z,1014.13
2018-02-20T01:10:13.507Z,1014.12
2018-02-20T01:11:23.210Z,1014.09
2018-02-20T01:12:32.898Z,1014.14
2018-02-20T01:13:42.602Z,1014.14
2018-02-20T01:14:52.294Z,1014.15
2018-02-20T01:16:02.245Z,1014.08
2018-02-20T01:17:12.201Z,1014.09
2018-02-20T01:18:22.157Z,1014.06
2018-02-20T01:19:31.588Z,1014.1
2018-02-20T01:20:41.028Z,1014.05
2018-02-20T01:21:50.980Z,1014.11
2018-02-20T01:23:00.677Z,1014.08
2018-02-20T01:24:10.119Z,1014.1
2018-02-20T01:25:19.808Z,1014.1
2018-02-20T01:26:29.752Z,1014.11
2018-02-20T01:27:39.704Z,1014.1
2018-02-20T01:28:49.655Z,1014.09
2018-02-20T01:29:59.101Z,1014.1
2018-02-20T01:31:08.794Z,1014.08
2018-02-20T01:32:18.229Z,1014.09
2018-02-20T01:33:28.186Z,1014.12
2018-02-20T01:34:37.875Z,1014.13
2018-02-20T01:35:47.825Z,1014.13
2018-02-20T01:36:57.787Z,1014.13
2018-02-20T01:38:07.760Z,1014.14
2018-02-20T01:39:17.712Z,1014.12
2018-02-20T01:40:27.658Z,1014.14
2018-02-20T01:41:37.610Z,1014.14
2018-02-20T01:42:47.298Z,1014.14
2018-02-20T01:43:56.987Z,1014.16
2018-02-20T01:45:06.444Z,1014.15
2018-02-20T01:46:16.144Z,1014.16
2018-02-20T01:47:26.090Z,1014.14
2018-02-20T01:48:35.784Z,1014.16
2018-02-20T01:49:45.492Z,1014.16
2018-02-20T01:50:55.450Z,1014.17
2018-02-20T01:52:05.424Z,1014.15
2018-02-20T01:53:15.378Z,1014.15
2018-02-20T01:54:25.334Z,1014.16
2018-02-20T01:55:35.283Z,1014.14
2018-02-20T01:56:44.992Z,1014.13
2018-02-20T01:57:54.937Z,1014.15
2018-02-20T01:59:04.629Z,1014.15
2018-02-20T02:00:14.593Z,1014.14
2018-02-20T02:01:24.570Z,1014.15
2018-02-20T02:02:34.523Z,1014.13
2018-02-20T02:03:44.233Z,1014.12
2018-02-20T02:04:53.677Z,1014.17
2018-02-20T02:06:03.653Z,1014.15
2018-02-20T02:07:13.359Z,1014.14
2018-02-20T02:08:23.554Z,1014.13
2018-02-20T02:09:33.509Z,1014.14
2018-02-20T02:10:43.462Z,1014.18
2018-02-20T02:11:52.640Z,1014.15
2018-02-20T02:13:02.332Z,1014.15
2018-02-20T02:14:12.018Z,1014.15
2018-02-20T02:15:21.450Z,1014.12
2018-02-20T02:16:31.406Z,1014.13
2018-02-20T02:17:41.102Z,1014.09
2018-02-20T02:18:51.071Z,1014.11
2018-02-20T02:20:00.509Z,1014.07
2018-02-20T02:21:10.463Z,1014.06
2018-02-20T02:22:20.162Z,1014.06
2018-02-20T02:23:30.109Z,1014.08
2018-02-20T02:24:39.804Z,1014.08
2018-02-20T02:25:49.754Z,1014.08
2018-02-20T02:26:59.470Z,1014.06
2018-02-20T02:28:09.164Z,1014.04
2018-02-20T02:29:18.857Z,1014.05
2018-02-20T02:30:28.806Z,1014.02
2018-02-20T02:31:38.790Z,1014.05
2018-02-20T02:32:48.508Z,1014.03
2018-02-20T02:33:58.214Z,1014.03
2018-02-20T02:35:07.655Z,1014.01
2018-02-20T02:36:17.408Z,1014.02
2018-02-20T02:37:26.853Z,1014.03
2018-02-20T02:38:36.554Z,1013.98
2018-02-20T02:39:46.512Z,1013.98
2018-02-20T02:40:56.488Z,1014
2018-02-20T02:42:05.940Z,1014.01
2018-02-20T02:43:15.633Z,1013.98
2018-02-20T02:44:25.597Z,1014.01
2018-02-20T02:45:35.572Z,1013.97
2018-02-20T02:46:45.008Z,1014.02
2018-02-20T02:47:54.977Z,1014.05
2018-02-20T02:49:04.680Z,1014.02
2018-02-20T02:50:14.370Z,1014.04
2018-02-20T02:51:24.068Z,1014.03
2018-02-20T02:52:33.782Z,1013.97
2018-02-20T02:53:42.967Z,1013.99
2018-02-20T02:54:52.943Z,1014
2018-02-20T02:56:02.659Z,1013.98
2018-02-20T02:57:12.374Z,1013.98
2018-02-20T02:58:21.818Z,1013.97
2018-02-20T02:59:31.784Z,1013.98
2018-02-20T03:00:41.754Z,1013.98
2018-02-20T03:01:51.718Z,1014.02
2018-02-20T03:03:01.420Z,1013.99
2018-02-20T03:04:11.379Z,1014.04
2018-02-20T03:05:21.345Z,1014.01
2018-02-20T03:06:31.297Z,1013.98
2018-02-20T03:07:41.252Z,1013.98
2018-02-20T03:08:51.207Z,1013.96
2018-02-20T03:10:00.908Z,1014.01
2018-02-20T03:11:10.861Z,1013.96
2018-02-20T03:12:20.593Z,1013.98
2018-02-20T03:13:30.293Z,1013.95
2018-02-20T03:14:40.242Z,1013.94
2018-02-20T03:15:50.202Z,1013.95
2018-02-20T03:17:00.168Z,1013.95
2018-02-20T03:18:09.872Z,1013.99
2018-02-20T03:19:19.574Z,1013.97
2018-02-20T03:20:29.263Z,1013.95
2018-02-20T03:21:38.695Z,1013.94
2018-02-20T03:22:48.402Z,1013.91
2018-02-20T03:23:58.105Z,1013.92
2018-02-20T03:25:07.841Z,1013.95
2018-02-20T03:26:17.544Z,1013.91
2018-02-20T03:27:27.492Z,1013.95
2018-02-20T03:28:37.184Z,1013.92
2018-02-20T03:29:47.118Z,1013.95
2018-02-20T03:30:57.081Z,1013.93
2018-02-20T03:32:06.772Z,1013.9
2018-02-20T03:33:16.467Z,1013.91
2018-02-20T03:34:26.415Z,1013.93
2018-02-20T03:35:36.627Z,1013.91
2018-02-20T03:36:46.060Z,1013.95
2018-02-20T03:37:55.791Z,1013.93
2018-02-20T03:39:05.231Z,1013.97
2018-02-20T03:40:15.244Z,1013.92
2018-02-20T03:41:24.927Z,1013.94
2018-02-20T03:42:34.611Z,1013.94
2018-02-20T03:43:44.554Z,1013.91
2018-02-20T03:44:54.246Z,1013.86
2018-02-20T03:46:03.708Z,1013.83
2018-02-20T03:47:13.904Z,1013.87
2018-02-20T03:48:23.852Z,1013.84
2018-02-20T03:49:33.803Z,1013.87
2018-02-20T03:50:43.486Z,1013.86
2018-02-20T03:51:52.931Z,1013.88
2018-02-20T03:53:02.101Z,1013.87
2018-02-20T03:54:11.784Z,1013.86
2018-02-20T03:55:21.474Z,1013.91
2018-02-20T03:56:31.432Z,1013.91
2018-02-20T03:57:41.388Z,1013.86
2018-02-20T03:58:51.337Z,1013.89
2018-02-20T04:00:00.763Z,1013.87
2018-02-20T04:01:10.468Z,1013.91
2018-02-20T04:02:20.187Z,1013.93
2018-02-20T04:03:29.876Z,1013.89
2018-02-20T04:04:39.823Z,1013.91
2018-02-20T04:05:49.778Z,1013.91
2018-02-20T04:06:59.467Z,1013.89
2018-02-20T04:08:09.173Z,1013.92
2018-02-20T04:09:18.882Z,1013.89
2018-02-20T04:10:28.454Z,1013.91
2018-02-20T04:11:38.451Z,1013.94
2018-02-20T04:12:48.201Z,1013.92
2018-02-20T04:13:57.634Z,1013.88
2018-02-20T04:15:07.602Z,1013.9
2018-02-20T04:16:17.356Z,1013.94
2018-02-20T04:17:27.319Z,1013.99
2018-02-20T04:18:37.013Z,1013.93
2018-02-20T04:19:46.968Z,1013.97
2018-02-20T04:20:56.920Z,1013.94
2018-02-20T04:22:06.875Z,1013.89
2018-02-20T04:23:16.826Z,1013.97
2018-02-20T04:24:26.786Z,1013.91
2018-02-20T04:25:36.234Z,1013.97
2018-02-20T04:26:45.683Z,1013.99
2018-02-20T04:27:55.384Z,1013.99
2018-02-20T04:29:05.337Z,1013.99
2018-02-20T04:30:15.056Z,1013.99
2018-02-20T04:31:25.075Z,1014
2018-02-20T04:32:34.799Z,1013.99
2018-02-20T04:33:44.767Z,1013.97
2018-02-20T04:34:54.719Z,1013.98
2018-02-20T04:36:04.663Z,1013.94
2018-02-20T04:37:14.636Z,1013.94
2018-02-20T04:38:24.342Z,1013.94
2018-02-20T04:39:34.283Z,1013.94
2018-02-20T04:40:43.971Z,1013.87
2018-02-20T04:41:53.656Z,1013.92
2018-02-20T04:43:03.604Z,1013.86
2018-02-20T04:44:13.418Z,1013.88
2018-02-20T04:45:23.102Z,1013.84
2018-02-20T04:46:32.533Z,1013.84
2018-02-20T04:47:42.480Z,1013.86
2018-02-20T04:48:52.431Z,1013.87
2018-02-20T04:50:02.130Z,1013.85
2018-02-20T04:51:12.066Z,1013.88
2018-02-20T04:52:22.009Z,1013.88
2018-02-20T04:53:31.962Z,1013.85
2018-02-20T04:54:41.653Z,1013.87
2018-02-20T04:55:51.601Z,1013.85
2018-02-20T04:57:01.558Z,1013.85
2018-02-20T04:58:11.502Z,1013.91
2018-02-20T04:59:20.946Z,1013.89
2018-02-20T05:00:30.635Z,1013.93
2018-02-20T05:01:40.593Z,1013.96
2018-02-20T05:02:50.642Z,1013.94
2018-02-20T05:04:00.076Z,1013.97
2018-02-20T05:05:09.778Z,1013.95
2018-02-20T05:06:19.502Z,1013.99
2018-02-20T05:07:29.196Z,1013.97
2018-02-20T05:08:39.402Z,1013.97
2018-02-20T05:09:49.351Z,1013.96
2018-02-20T05:10:59.043Z,1013.98
2018-02-20T05:12:08.996Z,1013.94
2018-02-20T05:13:18.944Z,1013.96
2018-02-20T05:14:28.644Z,1013.89
2018-02-20T05:15:38.340Z,1013.94
2018-02-20T05:16:47.519Z,1013.93
2018-02-20T05:17:57.213Z,1013.94
2018-02-20T05:19:06.900Z,1013.98
2018-02-20T05:20:16.345Z,1013.98
2018-02-20T05:21:26.307Z,1013.91
2018-02-20T05:22:36.259Z,1013.96
2018-02-20T05:23:45.963Z,1014
2018-02-20T05:24:55.654Z,1014.01
2018-02-20T05:26:04.832Z,1014.04
2018-02-20T05:27:14.795Z,1014.01
2018-02-20T05:28:24.243Z,1014.02
2018-02-20T05:29:33.939Z,1014.07
2018-02-20T05:30:43.121Z,1014.07
2018-02-20T05:31:53.084Z,1014.06
2018-02-20T05:33:03.048Z,1014.07
2018-02-20T05:34:13.003Z,1014.07
2018-02-20T05:35:22.956Z,1014.13
2018-02-20T05:36:32.397Z,1014.12
2018-02-20T05:37:42.359Z,1014.09
2018-02-20T05:38:52.328Z,1014.18
2018-02-20T05:40:02.295Z,1014.13
2018-02-20T05:41:12.256Z,1014.21
2018-02-20T05:42:21.965Z,1014.2
2018-02-20T05:43:31.142Z,1014.2
2018-02-20T05:44:41.088Z,1014.22
2018-02-20T05:45:51.037Z,1014.25
2018-02-20T05:47:00.490Z,1014.26
2018-02-20T05:48:09.920Z,1014.21
2018-02-20T05:49:19.879Z,1014.24
2018-02-20T05:50:29.842Z,1014.29
2018-02-20T05:51:39.276Z,1014.27
2018-02-20T05:52:49.257Z,1014.29
2018-02-20T05:53:58.957Z,1014.24
2018-02-20T05:55:08.650Z,1014.26
2018-02-20T05:56:18.342Z,1014.27
2018-02-20T05:57:28.288Z,1014.25
2018-02-20T05:58:38.241Z,1014.24
2018-02-20T05:59:48.363Z,1014.28
2018-02-20T06:00:58.324Z,1014.27
2018-02-20T06:02:07.784Z,1014.23
2018-02-20T06:03:17.488Z,1014.23
2018-02-20T06:04:26.932Z,1014.24
2018-02-20T06:05:36.371Z,1014.23
2018-02-20T06:06:46.073Z,1014.24
2018-02-20T06:07:55.768Z,1014.25
2018-02-20T06:09:05.736Z,1014.24
2018-02-20T06:10:15.706Z,1014.26
2018-02-20T06:11:25.402Z,1014.25
2018-02-20T06:12:35.350Z,1014.21
2018-02-20T06:13:45.041Z,1014.25
2018-02-20T06:14:54.991Z,1014.26
2018-02-20T06:16:04.958Z,1014.25
2018-02-20T06:17:14.393Z,1014.24
2018-02-20T06:18:24.448Z,1014.23
2018-02-20T06:19:34.142Z,1014.28
2018-02-20T06:20:44.095Z,1014.29
2018-02-20T06:21:53.780Z,1014.24
2018-02-20T06:23:03.226Z,1014.24
2018-02-20T06:24:13.389Z,1014.26
2018-02-20T06:25:23.096Z,1014.26
2018-02-20T06:26:33.050Z,1014.27
2018-02-20T06:27:43.013Z,1014.25
2018-02-20T06:28:52.971Z,1014.23
2018-02-20T06:30:02.928Z,1014.29
2018-02-20T06:31:12.693Z,1014.25
2018-02-20T06:32:22.649Z,1014.27
2018-02-20T06:33:32.597Z,1014.23
2018-02-20T06:34:42.310Z,1014.25
2018-02-20T06:35:52.019Z,1014.3
2018-02-20T06:37:01.736Z,1014.3
2018-02-20T06:38:11.435Z,1014.27
2018-02-20T06:39:20.871Z,1014.28
2018-02-20T06:40:30.570Z,1014.29
2018-02-20T06:41:40.269Z,1014.28
2018-02-20T06:42:49.973Z,1014.29
2018-02-20T06:43:59.943Z,1014.3
2018-02-20T06:45:09.662Z,1014.3
2018-02-20T06:46:19.458Z,1014.35
2018-02-20T06:47:29.420Z,1014.36
2018-02-20T06:48:39.109Z,1014.35
2018-02-20T06:49:48.817Z,1014.37
2018-02-20T06:50:58.790Z,1014.37
2018-02-20T06:52:09.015Z,1014.38
2018-02-20T06:53:18.717Z,1014.38
2018-02-20T06:54:28.408Z,1014.38
2018-02-20T06:55:38.432Z,1014.38
2018-02-20T06:56:48.471Z,1014.39
2018-02-20T06:57:58.183Z,1014.39
2018-02-20T06:59:08.146Z,1014.44
2018-02-20T07:00:17.844Z,1014.41
2018-02-20T07:01:27.523Z,1014.43
2018-02-20T07:02:37.483Z,1014.44
2018-02-20T07:03:47.446Z,1014.44
2018-02-20T07:04:57.387Z,1014.41
2018-02-20T07:06:07.298Z,1014.45
2018-02-20T07:07:17.272Z,1014.44
2018-02-20T07:08:27.244Z,1014.49
2018-02-20T07:09:36.966Z,1014.45
2018-02-20T07:10:46.663Z,1014.49
2018-02-20T07:11:56.623Z,1014.49
2018-02-20T07:13:06.379Z,1014.46
2018-02-20T07:14:16.356Z,1014.51
2018-02-20T07:15:26.324Z,1014.49
2018-02-20T07:16:36.027Z,1014.46
2018-02-20T07:17:45.723Z,1014.47
2018-02-20T07:18:55.419Z,1014.5
2018-02-20T07:20:04.855Z,1014.5
2018-02-20T07:21:14.558Z,1014.51
2018-02-20T07:22:24.533Z,1014.53
2018-02-20T07:23:34.493Z,1014.58
2018-02-20T07:24:44.454Z,1014.57
2018-02-20T07:25:54.158Z,1014.6
2018-02-20T07:27:03.877Z,1014.58
2018-02-20T07:28:13.869Z,1014.62
2018-02-20T07:29:23.620Z,1014.68
2018-02-20T07:30:33.577Z,1014.68
2018-02-20T07:31:43.544Z,1014.67
2018-02-20T07:32:53.514Z,1014.67
2018-02-20T07:34:03.466Z,1014.69
2018-02-20T07:35:12.906Z,1014.68
2018-02-20T07:36:22.594Z,1014.7
2018-02-20T07:37:32.583Z,1014.71
2018-02-20T07:38:42.547Z,1014.64
2018-02-20T07:39:52.256Z,1014.7
2018-02-20T07:41:01.705Z,1014.68
2018-02-20T07:42:11.400Z,1014.67
2018-02-20T07:43:21.357Z,1014.7
2018-02-20T07:44:30.807Z,1014.72
2018-02-20T07:45:40.243Z,1014.69
2018-02-20T07:46:50.212Z,1014.72
2018-02-20T07:48:00.165Z,1014.74
2018-02-20T07:49:09.339Z,1014.69
2018-02-20T07:50:19.038Z,1014.7
2018-02-20T07:51:28.469Z,1014.75
2018-02-20T07:52:37.912Z,1014.71
2018-02-20T07:53:47.887Z,1014.71
2018-02-20T07:54:57.587Z,1014.68
2018-02-20T07:56:07.032Z,1014.73
2018-02-20T07:57:16.767Z,1014.72
2018-02-20T07:58:26.730Z,1014.66
2018-02-20T07:59:36.167Z,1014.72
2018-02-20T08:00:45.624Z,1014.73
2018-02-20T08:01:55.578Z,1014.75
2018-02-20T08:03:05.284Z,1014.77
2018-02-20T08:04:15.239Z,1014.72
2018-02-20T08:05:25.203Z,1014.74
2018-02-20T08:06:34.989Z,1014.75
2018-02-20T08:07:44.445Z,1014.76
2018-02-20T08:08:54.138Z,1014.75
2018-02-20T08:10:04.084Z,1014.71
2018-02-20T08:11:13.787Z,1014.77
2018-02-20T08:12:23.239Z,1014.73
2018-02-20T08:13:33.206Z,1014.81
2018-02-20T08:14:43.167Z,1014.76
2018-02-20T08:15:53.338Z,1014.74
2018-02-20T08:17:03.057Z,1014.77
2018-02-20T08:18:13.033Z,1014.71
2018-02-20T08:19:23.019Z,1014.76
2018-02-20T08:20:32.475Z,1014.74
2018-02-20T08:21:42.431Z,1014.71
2018-02-20T08:22:52.394Z,1014.75
2018-02-20T08:24:02.358Z,1014.76
2018-02-20T08:25:12.129Z,1014.75
2018-02-20T08:26:22.117Z,1014.75
2018-02-20T08:27:32.076Z,1014.74
2018-02-20T08:28:41.262Z,1014.76
2018-02-20T08:29:50.966Z,1014.76
2018-02-20T08:31:00.925Z,1014.76
2018-02-20T08:32:10.888Z,1014.76
2018-02-20T08:33:20.853Z,1014.74
2018-02-20T08:34:30.815Z,1014.77
2018-02-20T08:35:40.778Z,1014.81
2018-02-20T08:36:50.739Z,1014.78
2018-02-20T08:38:00.200Z,1014.8
2018-02-20T08:39:09.915Z,1014.78
2018-02-20T08:40:19.915Z,1014.8
2018-02-20T08:41:29.359Z,1014.81
2018-02-20T08:42:39.065Z,1014.86
2018-02-20T08:43:48.771Z,1014.84
2018-02-20T08:44:58.500Z,1014.87
2018-02-20T08:46:07.945Z,1014.83
2018-02-20T08:47:17.726Z,1014.85
2018-02-20T08:48:27.692Z,1014.85
2018-02-20T08:49:37.682Z,1014.83
2018-02-20T08:50:47.377Z,1014.78
2018-02-20T08:51:57.342Z,1014.8
2018-02-20T08:53:06.802Z,1014.79
2018-02-20T08:54:16.780Z,1014.79
2018-02-20T08:55:26.748Z,1014.76
2018-02-20T08:56:36.725Z,1014.77
2018-02-20T08:57:46.691Z,1014.75
2018-02-20T08:58:56.151Z,1014.76
2018-02-20T09:00:06.189Z,1014.77
2018-02-20T09:01:15.972Z,1014.8
2018-02-20T09:02:25.937Z,1014.75
2018-02-20T09:03:35.410Z,1014.74
2018-02-20T09:04:45.121Z,1014.75
2018-02-20T09:05:55.090Z,1014.74
2018-02-20T09:07:05.058Z,1014.72
2018-02-20T09:08:14.579Z,1014.67
2018-02-20T09:09:24.287Z,1014.72
2018-02-20T09:10:34.276Z,1014.61
2018-02-20T09:11:44.011Z,1014.68
2018-02-20T09:12:53.727Z,1014.66
2018-02-20T09:14:03.691Z,1014.66
2018-02-20T09:15:13.677Z,1014.68
2018-02-20T09:16:23.665Z,1014.63
2018-02-20T09:17:33.414Z,1014.66
2018-02-20T09:18:43.205Z,1014.59
2018-02-20T09:19:52.379Z,1014.61
2018-02-20T09:21:02.356Z,1014.59
2018-02-20T09:22:12.086Z,1014.62
2018-02-20T09:23:22.059Z,1014.62
2018-02-20T09:24:31.778Z,1014.63
2018-02-20T09:25:41.504Z,1014.63
2018-02-20T09:26:51.485Z,1014.65
2018-02-20T09:28:01.462Z,1014.61
2018-02-20T09:29:11.201Z,1014.63
2018-02-20T09:30:21.160Z,1014.62
2018-02-20T09:31:30.867Z,1014.63
2018-02-20T09:32:40.847Z,1014.63
2018-02-20T09:33:50.595Z,1014.64
2018-02-20T09:35:00.560Z,1014.66
2018-02-20T09:36:10.277Z,1014.62
2018-02-20T09:37:20.012Z,1014.66
2018-02-20T09:38:29.740Z,1014.58
2018-02-20T09:39:39.764Z,1014.59
2018-02-20T09:40:49.461Z,1014.59
2018-02-20T09:41:59.190Z,1014.64
2018-02-20T09:43:08.907Z,1014.61
2018-02-20T09:44:18.363Z,1014.61
2018-02-20T09:45:28.134Z,1014.66
2018-02-20T09:46:37.898Z,1014.69
2018-02-20T09:47:47.619Z,1014.64
2018-02-20T09:48:57.623Z,1014.66
2018-02-20T09:50:07.338Z,1014.69
2018-02-20T09:51:17.408Z,1014.66
2018-02-20T09:52:27.426Z,1014.68
2018-02-20T09:53:37.136Z,1014.7
2018-02-20T09:54:46.872Z,1014.65
2018-02-20T09:55:56.323Z,1014.65
2018-02-20T09:57:06.320Z,1014.66
2018-02-20T09:58:16.303Z,1014.67
2018-02-20T09:59:26.269Z,1014.64
2018-02-20T10:00:36.227Z,1014.71
2018-02-20T10:01:45.945Z,1014.7
2018-02-20T10:02:55.956Z,1014.7
2018-02-20T10:04:05.409Z,1014.71
2018-02-20T10:05:15.463Z,1014.75
2018-02-20T10:06:25.196Z,1014.74
2018-02-20T10:07:34.936Z,1014.69
2018-02-20T10:08:44.905Z,1014.73
2018-02-20T10:09:54.630Z,1014.69
2018-02-20T10:11:04.080Z,1014.69
2018-02-20T10:12:13.777Z,1014.73
2018-02-20T10:13:23.541Z,1014.7
2018-02-20T10:14:33.276Z,1014.72
2018-02-20T10:15:43.249Z,1014.74
2018-02-20T10:16:52.710Z,1014.74
2018-02-20T10:18:02.708Z,1014.74
2018-02-20T10:19:12.146Z,1014.77
2018-02-20T10:20:22.178Z,1014.8
2018-02-20T10:21:32.157Z,1014.76
2018-02-20T10:22:41.361Z,1014.76
2018-02-20T10:23:51.365Z,1014.78
2018-02-20T10:25:00.306Z,1014.76
2018-02-20T10:26:10.037Z,1014.77
2018-02-20T10:27:20.030Z,1014.75
2018-02-20T10:28:29.747Z,1014.75
2018-02-20T10:29:39.455Z,1014.76
2018-02-20T10:30:49.159Z,1014.75
2018-02-20T10:31:59.128Z,1014.78
2018-02-20T10:33:08.649Z,1014.78
2018-02-20T10:34:18.362Z,1014.75
2018-02-20T10:35:28.340Z,1014.76
2018-02-20T10:36:38.308Z,1014.75
2018-02-20T10:37:48.277Z,1014.76
2018-02-20T10:38:57.992Z,1014.75
2018-02-20T10:40:07.167Z,1014.74
2018-02-20T10:41:17.115Z,1014.73
2018-02-20T10:42:26.833Z,1014.78
2018-02-20T10:43:36.549Z,1014.77
2018-02-20T10:44:46.529Z,1014.72
2018-02-20T10:45:56.501Z,1014.72
2018-02-20T10:47:06.464Z,1014.71
2018-02-20T10:48:16.438Z,1014.75
2018-02-20T10:49:26.140Z,1014.7
2018-02-20T10:50:35.874Z,1014.73
2018-02-20T10:51:45.845Z,1014.7
2018-02-20T10:52:55.826Z,1014.67
2018-02-20T10:54:05.558Z,1014.62
2018-02-20T10:55:15.331Z,1014.62
2018-02-20T10:56:25.296Z,1014.63
2018-02-20T10:57:34.998Z,1014.62
2018-02-20T10:58:44.615Z,1014.62
2018-02-20T10:59:54.337Z,1014.58
2018-02-20T11:01:04.080Z,1014.58
2018-02-20T11:02:14.069Z,1014.6
2018-02-20T11:03:23.554Z,1014.57
2018-02-20T11:04:33.021Z,1014.6
2018-02-20T11:05:43.030Z,1014.62
2018-02-20T11:06:52.746Z,1014.58
2018-02-20T11:08:02.720Z,1014.6
2018-02-20T11:09:12.431Z,1014.56
2018-02-20T11:10:22.440Z,1014.57
2018-02-20T11:11:32.168Z,1014.59
2018-02-20T11:12:42.184Z,1014.54
2018-02-20T11:13:51.895Z,1014.61
2018-02-20T11:15:01.651Z,1014.6
2018-02-20T11:16:11.643Z,1014.58
2018-02-20T11:17:21.094Z,1014.65
2018-02-20T11:18:30.550Z,1014.66
2018-02-20T11:19:40.533Z,1014.63
2018-02-20T11:20:50.530Z,1014.59
2018-02-20T11:22:00.505Z,1014.59
2018-02-20T11:23:10.494Z,1014.58
2018-02-20T11:24:20.477Z,1014.59
2018-02-20T11:25:30.191Z,1014.59
2018-02-20T11:26:40.213Z,1014.63
2018-02-20T11:27:49.943Z,1014.61
2018-02-20T11:28:59.922Z,1014.6
2018-02-20T11:30:09.642Z,1014.62
2018-02-20T11:31:19.634Z,1014.64
2018-02-20T11:32:29.365Z,1014.66
2018-02-20T11:33:39.338Z,1014.67
2018-02-20T11:34:49.062Z,1014.68
2018-02-20T11:35:58.778Z,1014.66
2018-02-20T11:37:08.510Z,1014.68
2018-02-20T11:38:18.219Z,1014.67
2018-02-20T11:39:28.000Z,1014.63
2018-02-20T11:40:37.983Z,1014.64
2018-02-20T11:41:48.012Z,1014.61
2018-02-20T11:42:58.010Z,1014.65
2018-02-20T11:44:07.729Z,1014.62
2018-02-20T11:45:17.707Z,1014.61
2018-02-20T11:46:27.682Z,1014.56
2018-02-20T11:47:37.401Z,1014.55
2018-02-20T11:48:47.140Z,1014.56
2018-02-20T11:49:56.848Z,1014.56
2018-02-20T11:51:06.848Z,1014.56
2018-02-20T11:52:16.838Z,1014.54
2018-02-20T11:53:26.576Z,1014.55
2018-02-20T11:54:36.555Z,1014.52
2018-02-20T11:55:46.276Z,1014.56
2018-02-20T11:56:55.827Z,1014.52
2018-02-20T11:58:05.349Z,1014.49
2018-02-20T11:59:15.069Z,1014.52
2018-02-20T12:00:25.298Z,1014.5
2018-02-20T12:01:35.028Z,1014.5
2018-02-20T12:02:44.747Z,1014.5
2018-02-20T12:03:54.754Z,1014.49
2018-02-20T12:05:04.212Z,1014.46
2018-02-20T12:06:14.198Z,1014.51
2018-02-20T12:07:24.450Z,1014.44
2018-02-20T12:08:34.430Z,1014.47
2018-02-20T12:09:44.422Z,1014.44
2018-02-20T12:10:54.400Z,1014.44
2018-02-20T12:12:03.866Z,1014.46
2018-02-20T12:13:13.319Z,1014.43
2018-02-20T12:14:23.284Z,1014.44
2018-02-20T12:15:33.006Z,1014.4
2018-02-20T12:16:42.469Z,1014.42
2018-02-20T12:17:52.445Z,1014.45
2018-02-20T12:19:02.159Z,1014.46
2018-02-20T12:20:11.905Z,1014.43
2018-02-20T12:21:21.730Z,1014.44
2018-02-20T12:22:31.462Z,1014.4
2018-02-20T12:23:40.924Z,1014.47
2018-02-20T12:24:50.899Z,1014.42
2018-02-20T12:26:00.102Z,1014.48
2018-02-20T12:27:10.113Z,1014.47
2018-02-20T12:28:20.108Z,1014.43
2018-02-20T12:29:30.100Z,1014.43
2018-02-20T12:30:40.077Z,1014.45
2018-02-20T12:31:50.045Z,1014.47
2018-02-20T12:32:59.504Z,1014.4
2018-02-20T12:34:09.478Z,1014.43
2018-02-20T12:35:19.477Z,1014.43
2018-02-20T12:36:29.466Z,1014.4
2018-02-20T12:37:39.437Z,1014.43
2018-02-20T12:38:48.933Z,1014.47
2018-02-20T12:39:58.907Z,1014.51
2018-02-20T12:41:08.617Z,1014.5
2018-02-20T12:42:18.620Z,1014.53
2018-02-20T12:43:28.363Z,1014.5
2018-02-20T12:44:38.380Z,1014.45
2018-02-20T12:45:48.144Z,1014.46
2018-02-20T12:46:57.903Z,1014.49
2018-02-20T12:48:07.667Z,1014.47
2018-02-20T12:49:17.179Z,1014.51
2018-02-20T12:50:27.195Z,1014.45
2018-02-20T12:51:36.918Z,1014.47
2018-02-20T12:52:46.961Z,1014.54
2018-02-20T12:53:56.968Z,1014.45
2018-02-20T12:55:06.989Z,1014.5
2018-02-20T12:56:16.982Z,1014.46
2018-02-20T12:57:27.021Z,1014.46
2018-02-20T12:58:36.477Z,1014.43
2018-02-20T12:59:46.039Z,1014.45
2018-02-20T13:00:55.269Z,1014.47
2018-02-20T13:02:05.013Z,1014.47
2018-02-20T13:03:14.827Z,1014.48
2018-02-20T13:04:24.668Z,1014.48
2018-02-20T13:05:34.433Z,1014.46
2018-02-20T13:06:44.437Z,1014.52
2018-02-20T13:07:53.902Z,1014.49
2018-02-20T13:09:03.591Z,1014.47
2018-02-20T13:10:13.694Z,1014.46
2018-02-20T13:11:23.499Z,1014.5
2018-02-20T13:12:33.511Z,1014.53
2018-02-20T13:13:43.289Z,1014.53
2018-02-20T13:14:53.303Z,1014.52
2018-02-20T13:16:03.053Z,1014.53
2018-02-20T13:17:13.112Z,1014.51
2018-02-20T13:18:22.840Z,1014.49
2018-02-20T13:19:32.577Z,1014.56
2018-02-20T13:20:42.280Z,1014.5
2018-02-20T13:21:52.273Z,1014.49
2018-02-20T13:23:02.061Z,1014.56
2018-02-20T13:24:12.068Z,1014.57
2018-02-20T13:25:22.051Z,1014.61
2018-02-20T13:26:32.036Z,1014.58
2018-02-20T13:27:41.871Z,1014.61
2018-02-20T13:28:51.564Z,1014.6
2018-02-20T13:30:01.309Z,1014.61
2018-02-20T13:31:11.053Z,1014.56
2018-02-20T13:32:20.784Z,1014.58
2018-02-20T13:33:30.791Z,1014.53
2018-02-20T13:34:40.812Z,1014.57
2018-02-20T13:35:50.818Z,1014.61
2018-02-20T13:37:00.566Z,1014.62
2018-02-20T13:38:10.548Z,1014.6
2018-02-20T13:39:20.534Z,1014.56
2018-02-20T13:40:30.258Z,1014.52
2018-02-20T13:41:39.982Z,1014.54
2018-02-20T13:42:49.722Z,1014.58
2018-02-20T13:43:59.732Z,1014.61
2018-02-20T13:45:09.234Z,1014.61
2018-02-20T13:46:18.956Z,1014.56
2018-02-20T13:47:28.733Z,1014.53
2018-02-20T13:48:38.462Z,1014.67
2018-02-20T13:49:48.450Z,1014.62
2018-02-20T13:50:58.445Z,1014.65
2018-02-20T13:52:08.454Z,1014.72
2018-02-20T13:53:18.187Z,1014.71
2018-02-20T13:54:28.156Z,1014.75
2018-02-20T13:55:38.146Z,1014.73
2018-02-20T13:56:47.953Z,1014.75
2018-02-20T13:57:57.936Z,1014.75
2018-02-20T13:59:07.896Z,1014.8
2018-02-20T14:00:17.625Z,1014.81
2018-02-20T14:01:27.363Z,1014.81
2018-02-20T14:02:37.320Z,1014.8
2018-02-20T14:03:47.559Z,1014.79
2018-02-20T14:04:57.554Z,1014.8
2018-02-20T14:06:07.586Z,1014.79